Time;durP1;ratioP1;P1;durP2;ratioP2;P2;SDS_P1;SDS_P2;PMS_P1;PMS_P2;Temp;Humidity;BMP_temperature;BMP_pressure;BME280_temperature;BME280_humidity;BME280_pressure;Samples;Min_cycle;Max_cycle;Signal;HPM_P1;HPM_P2
2023/07/15 00:00:16;;;;;;;6.13;3.03;;;;;;;;;;5034630;28;20208;-72
2023/07/15 00:03:22;;;;;;;3.80;3.40;;;;;;;;;;5013020;28;20197;-72
2023/07/15 00:06:26;;;;;;;4.00;3.10;;;;;;;;;;5002779;28;20631;-71
2023/07/15 00:09:31;;;;;;;3.73;3.27;;;;;;;;;;5015030;28;20178;-72
2023/07/15 00:12:35;;;;;;;7.97;3.30;;;;;;;;;;5002682;28;20220;-72
2023/07/15 00:15:40;;;;;;;3.90;3.00;;;;;;;;;;5014410;28;20177;-72
2023/07/15 00:18:45;;;;;;;6.87;2.80;;;;;;;;;;5014838;28;20252;-72
2023/07/15 00:21:48;;;;;;;3.90;3.13;;;;;;;;;;5014744;28;20549;-72
2023/07/15 00:24:52;;;;;;;5.13;3.00;;;;;;;;;;5014725;28;20181;-72
2023/07/15 00:27:57;;;;;;;5.77;3.10;;;;;;;;;;5013586;28;20177;-72
2023/07/15 00:31:01;;;;;;;5.87;3.20;;;;;;;;;;5013734;28;20213;-71
2023/07/15 00:34:05;;;;;;;4.90;3.20;;;;;;;;;;5024749;28;20193;-72
2023/07/15 00:37:09;;;;;;;3.50;3.20;;;;;;;;;;5024990;28;20201;-72
2023/07/15 00:40:15;;;;;;;5.90;3.07;;;;;;;;;;5013567;28;20209;-72
2023/07/15 00:43:54;;;;;;;4.40;2.97;;;;;;;;;;5024635;28;20178;-72
2023/07/15 00:47:01;;;;;;;4.90;3.40;;;;;;;;;;5013527;28;20514;-72
2023/07/15 00:50:06;;;;;;;5.03;3.47;;;;;;;;;;5013486;28;20174;-71
2023/07/15 00:53:11;;;;;;;7.00;2.93;;;;;;;;;;5013038;28;20205;-72
2023/07/15 00:56:16;;;;;;;4.30;3.20;;;;;;;;;;5024453;28;20186;-72
2023/07/15 00:59:20;;;;;;;5.67;2.97;;;;;;;;;;5012973;28;20173;-71
2023/07/15 01:02:25;;;;;;;4.13;3.23;;;;;;;;;;5024322;28;20560;-72
2023/07/15 01:05:29;;;;;;;6.13;3.77;;;;;;;;;;5013741;28;20178;-71
2023/07/15 01:08:33;;;;;;;4.83;3.20;;;;;;;;;;5024507;28;20189;-72
2023/07/15 01:11:39;;;;;;;4.60;3.27;;;;;;;;;;5012832;28;20216;-72
2023/07/15 01:14:44;;;;;;;6.83;3.40;;;;;;;;;;5013132;28;20181;-72
2023/07/15 01:17:48;;;;;;;4.43;3.20;;;;;;;;;;5024191;28;20178;-72
2023/07/15 01:20:52;;;;;;;3.23;2.93;;;;;;;;;;5012554;28;20233;-72
2023/07/15 01:23:56;;;;;;;5.27;3.27;;;;;;;;;;5012975;28;20169;-72
2023/07/15 01:27:05;;;;;;;4.57;3.37;;;;;;;;;;5001715;28;20177;-72
2023/07/15 01:30:10;;;;;;;5.50;3.10;;;;;;;;;;5012758;28;20521;-71
2023/07/15 01:33:18;;;;;;;7.60;3.73;;;;;;;;;;5013387;28;20181;-72
2023/07/15 01:36:24;;;;;;;5.47;3.33;;;;;;;;;;5023923;28;20196;-71
2023/07/15 01:39:28;;;;;;;4.93;3.67;;;;;;;;;;5012736;28;20174;-72
2023/07/15 01:42:32;;;;;;;3.87;3.20;;;;;;;;;;5023692;28;20217;-71
2023/07/15 01:45:38;;;;;;;4.77;3.20;;;;;;;;;;5012499;28;20186;-72
2023/07/15 01:48:42;;;;;;;5.43;3.50;;;;;;;;;;5012757;28;20181;-72
2023/07/15 01:51:49;;;;;;;4.83;3.10;;;;;;;;;;5012630;28;20217;-72
2023/07/15 01:54:53;;;;;;;3.40;3.10;;;;;;;;;;5012371;28;20197;-72
2023/07/15 01:57:57;;;;;;;6.33;3.27;;;;;;;;;;5013147;28;20173;-72
2023/07/15 02:01:01;;;;;;;4.40;3.10;;;;;;;;;;5012227;28;20225;-72
2023/07/15 02:04:05;;;;;;;5.00;3.60;;;;;;;;;;5013098;28;20185;-72
2023/07/15 02:07:10;;;;;;;4.00;3.37;;;;;;;;;;5012621;28;20181;-72
2023/07/15 02:10:17;;;;;;;5.47;3.27;;;;;;;;;;5013357;28;20178;-72
2023/07/15 02:13:21;;;;;;;7.70;3.57;;;;;;;;;;5013279;28;20178;-72
2023/07/15 02:16:27;;;;;;;3.50;3.20;;;;;;;;;;5012196;28;20178;-72
2023/07/15 02:19:31;;;;;;;5.03;3.40;;;;;;;;;;5012685;28;20182;-72
2023/07/15 02:22:36;;;;;;;3.67;3.27;;;;;;;;;;5023399;28;20213;-71
2023/07/15 02:25:40;;;;;;;3.80;3.30;;;;;;;;;;5001831;28;20185;-72
2023/07/15 02:28:45;;;;;;;3.27;2.97;;;;;;;;;;5016063;28;20185;-72
2023/07/15 02:31:49;;;;;;;3.83;3.10;;;;;;;;;;5015959;28;20209;-71
2023/07/15 02:34:54;;;;;;;5.17;2.87;;;;;;;;;;5015640;28;20197;-71
2023/07/15 02:37:58;;;;;;;3.43;2.90;;;;;;;;;;5015620;28;20206;-72
2023/07/15 02:41:03;;;;;;;3.90;3.30;;;;;;;;;;5026747;28;20233;-71
2023/07/15 02:44:07;;;;;;;4.03;3.50;;;;;;;;;;5016432;28;20633;-72
2023/07/15 02:47:11;;;;;;;4.20;2.77;;;;;;;;;;5016532;28;20173;-72
2023/07/15 02:50:15;;;;;;;6.00;3.20;;;;;;;;;;5015408;28;20174;-72
2023/07/15 02:53:20;;;;;;;4.00;3.23;;;;;;;;;;5015321;28;20667;-72
2023/07/15 02:56:24;;;;;;;4.27;3.13;;;;;;;;;;5016366;28;20182;-72
2023/07/15 02:59:28;;;;;;;4.53;2.80;;;;;;;;;;5015260;28;20521;-72
2023/07/15 03:02:32;;;;;;;4.77;3.30;;;;;;;;;;5015214;28;20699;-72
2023/07/15 03:05:36;;;;;;;4.40;3.07;;;;;;;;;;5015245;28;20186;-72
2023/07/15 03:08:40;;;;;;;6.30;2.80;;;;;;;;;;5026650;28;20201;-72
2023/07/15 03:11:44;;;;;;;3.40;3.10;;;;;;;;;;5014942;28;20221;-72
2023/07/15 03:14:49;;;;;;;4.23;2.77;;;;;;;;;;5015085;28;20197;-72
2023/07/15 03:17:53;;;;;;;3.83;2.90;;;;;;;;;;5015446;28;20178;-72
2023/07/15 03:20:57;;;;;;;3.27;2.80;;;;;;;;;;5003573;28;20225;-72
2023/07/15 03:24:03;;;;;;;2.90;2.60;;;;;;;;;;5015054;28;20177;-72
2023/07/15 03:27:07;;;;;;;3.30;3.00;;;;;;;;;;5015801;28;20181;-72
2023/07/15 03:30:13;;;;;;;3.73;2.93;;;;;;;;;;5014957;28;20633;-72
2023/07/15 03:33:17;;;;;;;4.17;3.50;;;;;;;;;;5014891;28;20185;-72
2023/07/15 03:36:22;;;;;;;3.73;2.60;;;;;;;;;;5014493;28;20185;-72
2023/07/15 03:39:26;;;;;;;3.87;2.90;;;;;;;;;;5014504;28;20625;-72
2023/07/15 03:42:30;;;;;;;2.80;2.60;;;;;;;;;;5015213;28;20691;-71
2023/07/15 03:45:34;;;;;;;4.00;2.60;;;;;;;;;;5015444;28;20197;-72
2023/07/15 03:48:39;;;;;;;6.27;3.10;;;;;;;;;;5015117;28;20182;-72
2023/07/15 03:51:44;;;;;;;7.90;3.60;;;;;;;;;;5015184;28;20204;-72
2023/07/15 03:54:47;;;;;;;5.53;3.30;;;;;;;;;;5014138;28;20201;-72
2023/07/15 03:57:52;;;;;;;3.37;3.00;;;;;;;;;;5014471;28;20181;-72
2023/07/15 04:00:56;;;;;;;3.47;2.80;;;;;;;;;;5014806;28;20233;-71
2023/07/15 04:04:08;;;;;;;4.03;3.27;;;;;;;;;;5014336;28;20185;-72
2023/07/15 04:07:12;;;;;;;3.93;3.20;;;;;;;;;;5014288;28;20182;-72
2023/07/15 04:10:16;;;;;;;6.10;3.23;;;;;;;;;;5015002;28;20509;-72
2023/07/15 04:13:20;;;;;;;4.90;3.53;;;;;;;;;;5014118;28;20189;-72
2023/07/15 04:16:24;;;;;;;4.30;3.10;;;;;;;;;;5014864;28;20204;-72
2023/07/15 04:19:28;;;;;;;4.43;3.13;;;;;;;;;;5014758;28;20174;-72
2023/07/15 04:22:36;;;;;;;3.17;2.80;;;;;;;;;;5014630;28;20228;-72
2023/07/15 04:25:41;;;;;;;5.33;2.83;;;;;;;;;;5024926;28;20538;-72
2023/07/15 04:28:45;;;;;;;4.13;3.10;;;;;;;;;;5014317;28;20564;-71
2023/07/15 04:31:49;;;;;;;3.67;3.03;;;;;;;;;;5013319;28;20213;-71
2023/07/15 04:34:53;;;;;;;6.27;3.03;;;;;;;;;;5014187;28;20636;-71
2023/07/15 04:37:57;;;;;;;4.30;2.97;;;;;;;;;;5013685;28;20186;-72
2023/07/15 04:41:02;;;;;;;3.50;3.20;;;;;;;;;;5014048;28;20221;-72
2023/07/15 04:44:06;;;;;;;5.03;2.97;;;;;;;;;;5024551;28;20193;-72
2023/07/15 04:47:10;;;;;;;3.70;3.20;;;;;;;;;;5013971;28;20201;-71
2023/07/15 04:50:14;;;;;;;4.03;3.13;;;;;;;;;;5012834;28;20177;-71
2023/07/15 04:53:18;;;;;;;6.70;3.33;;;;;;;;;;5013540;28;20197;-72
2023/07/15 04:56:22;;;;;;;7.30;3.20;;;;;;;;;;5014155;28;20628;-72
2023/07/15 04:59:27;;;;;;;4.30;3.67;;;;;;;;;;5024599;28;20201;-72
2023/07/15 05:02:31;;;;;;;4.60;3.30;;;;;;;;;;5013091;28;20228;-71
2023/07/15 05:05:35;;;;;;;5.77;3.83;;;;;;;;;;5013823;28;20196;-72
2023/07/15 05:08:39;;;;;;;5.63;4.10;;;;;;;;;;5013164;28;20522;-72
2023/07/15 05:11:44;;;;;;;6.00;3.27;;;;;;;;;;5013745;28;20209;-71
2023/07/15 05:14:48;;;;;;;6.30;3.70;;;;;;;;;;5013604;28;20197;-72
2023/07/15 05:17:52;;;;;;;7.13;3.33;;;;;;;;;;5013337;28;20209;-71
2023/07/15 05:20:57;;;;;;;5.43;3.37;;;;;;;;;;5013520;28;20692;-71
2023/07/15 05:24:01;;;;;;;5.83;3.40;;;;;;;;;;5013038;28;20181;-72
2023/07/15 05:27:05;;;;;;;6.17;3.73;;;;;;;;;;5023932;28;20181;-71
2023/07/15 05:30:10;;;;;;;5.33;3.40;;;;;;;;;;4992135;28;20178;-71
2023/07/15 05:33:14;;;;;;;5.57;3.63;;;;;;;;;;4994035;28;20182;-71
2023/07/15 05:36:18;;;;;;;4.73;3.13;;;;;;;;;;5003471;28;20182;-71
2023/07/15 05:39:22;;;;;;;4.30;3.57;;;;;;;;;;4993736;28;20186;-72
2023/07/15 05:42:27;;;;;;;3.50;3.20;;;;;;;;;;4993700;28;20692;-72
2023/07/15 05:45:31;;;;;;;6.20;3.43;;;;;;;;;;5004149;28;20186;-72
2023/07/15 05:48:35;;;;;;;3.73;3.23;;;;;;;;;;4993423;28;20186;-72
2023/07/15 05:51:39;;;;;;;3.93;2.83;;;;;;;;;;4993559;28;20214;-72
2023/07/15 05:54:43;;;;;;;4.73;3.40;;;;;;;;;;4993892;28;20206;-72
2023/07/15 05:57:47;;;;;;;6.13;4.10;;;;;;;;;;5004063;28;20178;-72
2023/07/15 06:00:52;;;;;;;3.63;2.90;;;;;;;;;;5028952;22;20231;-73
2023/07/15 06:03:56;;;;;;;5.70;3.00;;;;;;;;;;5037245;28;20181;-73
2023/07/15 06:07:00;;;;;;;6.33;3.90;;;;;;;;;;5024598;28;20524;-73
2023/07/15 06:10:05;;;;;;;6.00;3.27;;;;;;;;;;5037040;28;20181;-73
2023/07/15 06:13:10;;;;;;;4.40;3.07;;;;;;;;;;5036811;28;20524;-73
2023/07/15 06:16:14;;;;;;;5.37;3.70;;;;;;;;;;5036974;28;20181;-72
2023/07/15 06:19:18;;;;;;;4.93;3.37;;;;;;;;;;5036835;28;20173;-72
2023/07/15 06:22:22;;;;;;;4.70;3.67;;;;;;;;;;5024270;28;20216;-74
2023/07/15 06:25:29;;;;;;;4.23;3.30;;;;;;;;;;5024386;28;20632;-74
2023/07/15 06:28:34;;;;;;;4.30;2.93;;;;;;;;;;5024340;28;20640;-72
2023/07/15 06:31:38;;;;;;;6.03;3.63;;;;;;;;;;5036563;28;20209;-73
2023/07/15 06:34:42;;;;;;;5.60;4.07;;;;;;;;;;5024122;28;20177;-72
2023/07/15 06:37:47;;;;;;;4.93;3.77;;;;;;;;;;5036579;28;20182;-72
2023/07/15 06:40:51;;;;;;;3.63;3.33;;;;;;;;;;5036415;28;20706;-72
2023/07/15 06:43:56;;;;;;;5.77;3.70;;;;;;;;;;5024040;28;20168;-72
2023/07/15 06:47:00;;;;;;;5.27;3.10;;;;;;;;;;5024221;28;20189;-72
2023/07/15 06:50:05;;;;;;;4.80;3.33;;;;;;;;;;5036024;28;20534;-72
2023/07/15 06:53:09;;;;;;;6.87;3.77;;;;;;;;;;5024045;28;20193;-72
2023/07/15 06:56:14;;;;;;;5.57;3.77;;;;;;;;;;5023887;28;20204;-72
2023/07/15 06:59:18;;;;;;;5.27;3.53;;;;;;;;;;5035859;28;20178;-72
2023/07/15 07:02:22;;;;;;;4.87;4.03;;;;;;;;;;5023506;28;20221;-71
2023/07/15 07:05:26;;;;;;;4.87;3.93;;;;;;;;;;5023749;28;20207;-72
2023/07/15 07:08:31;;;;;;;4.27;3.77;;;;;;;;;;5035661;28;20188;-72
2023/07/15 07:11:35;;;;;;;4.10;3.40;;;;;;;;;;5035198;28;20212;-72
2023/07/15 07:14:39;;;;;;;4.40;3.77;;;;;;;;;;5023403;28;20185;-72
2023/07/15 07:17:43;;;;;;;4.77;3.27;;;;;;;;;;5035493;28;20531;-72
2023/07/15 07:20:47;;;;;;;5.67;3.23;;;;;;;;;;5035441;28;20528;-72
2023/07/15 07:23:55;;;;;;;4.33;2.93;;;;;;;;;;5023515;28;20172;-73
2023/07/15 07:26:58;;;;;;;3.23;2.73;;;;;;;;;;5023311;28;20203;-73
2023/07/15 07:30:03;;;;;;;5.57;2.65;;;;;;;;;;5035378;28;20178;-74
2023/07/15 07:33:08;;;;;;;5.00;2.40;;;;;;;;;;5035577;28;20514;-76
2023/07/15 07:36:12;;;;;;;4.07;2.30;;;;;;;;;;5023123;28;20521;-75
2023/07/15 07:39:16;;;;;;;4.82;2.33;;;;;;;;;;5035466;28;20182;-75
2023/07/15 07:42:20;;;;;;;3.95;2.63;;;;;;;;;;5035210;28;20224;-75
2023/07/15 07:45:24;;;;;;;3.22;2.03;;;;;;;;;;5034939;28;20191;-76
2023/07/15 07:48:29;;;;;;;8.45;2.40;;;;;;;;;;5034941;28;20188;-75
2023/07/15 07:51:33;;;;;;;4.70;2.45;;;;;;;;;;5022624;28;20223;-75
2023/07/15 07:54:37;;;;;;;2.58;1.80;;;;;;;;;;5022797;28;20205;-75
2023/07/15 07:57:41;;;;;;;3.05;2.28;;;;;;;;;;5011386;28;20674;-75
2023/07/15 08:00:46;;;;;;;4.70;1.92;;;;;;;;;;5022392;28;20204;-75
2023/07/15 08:03:50;;;;;;;5.05;1.98;;;;;;;;;;5034979;28;20169;-75
2023/07/15 08:06:54;;;;;;;7.53;1.83;;;;;;;;;;5034910;28;20181;-75
2023/07/15 08:09:58;;;;;;;6.32;1.90;;;;;;;;;;5022439;28;20181;-75
2023/07/15 08:13:03;;;;;;;2.25;2.05;;;;;;;;;;5034808;28;20181;-75
2023/07/15 08:16:33;;;;;;;7.15;2.28;;;;;;;;;;5035019;28;20628;-75
2023/07/15 08:19:38;;;;;;;3.60;1.73;;;;;;;;;;5022492;28;20177;-75
2023/07/15 08:22:42;;;;;;;3.70;1.60;;;;;;;;;;5021997;28;20221;-75
2023/07/15 08:25:46;;;;;;;4.82;1.63;;;;;;;;;;5034499;28;20189;-75
2023/07/15 08:28:51;;;;;;;5.20;1.77;;;;;;;;;;5034209;28;20530;-75
2023/07/15 08:31:55;;;;;;;2.65;2.20;;;;;;;;;;5034024;28;20213;-75
2023/07/15 08:35:01;;;;;;;2.60;1.77;;;;;;;;;;5022249;28;20177;-75
2023/07/15 08:38:05;;;;;;;2.15;1.52;;;;;;;;;;5010830;28;20181;-75
2023/07/15 09:05:48;;;;;;;3.00;1.80;;;;;;;;;;5131705;28;20667;-85
2023/07/15 09:08:52;;;;;;;3.15;1.63;;;;;;;;;;5095942;28;20217;-87
2023/07/15 09:12:00;;;;;;;1.50;1.40;;;;;;;;;;5095722;28;20193;-86
2023/07/15 09:15:06;;;;;;;2.15;1.48;;;;;;;;;;5096108;28;20178;-87
2023/07/15 09:18:10;;;;;;;2.03;1.70;;;;;;;;;;5107188;28;20189;-87
2023/07/15 09:21:16;;;;;;;1.95;1.60;;;;;;;;;;5118714;28;20217;-86
2023/07/15 09:24:21;;;;;;;1.95;1.70;;;;;;;;;;5095734;28;20562;-86
2023/07/15 09:27:26;;;;;;;7.28;2.00;;;;;;;;;;5095663;28;20182;-85
2023/07/15 09:30:30;;;;;;;2.38;1.67;;;;;;;;;;5107644;27;20221;-86
2023/07/15 09:33:35;;;;;;;3.25;1.98;;;;;;;;;;5118833;28;20524;-86
2023/07/15 09:36:39;;;;;;;3.42;1.60;;;;;;;;;;5095603;28;20174;-86
2023/07/15 09:39:45;;;;;;;3.33;1.70;;;;;;;;;;5095550;27;20178;-86
2023/07/15 09:42:56;;;;;;;4.30;1.65;;;;;;;;;;5095071;28;20189;-86
2023/07/15 09:46:00;;;;;;;2.70;1.63;;;;;;;;;;5107112;28;20174;-86
2023/07/15 09:49:04;;;;;;;4.80;1.70;;;;;;;;;;5118066;28;20678;-86
2023/07/15 09:52:10;;;;;;;3.42;1.88;;;;;;;;;;5095071;28;20186;-86
2023/07/15 09:55:15;;;;;;;2.50;1.60;;;;;;;;;;5106983;28;20608;-86
2023/07/15 09:58:23;;;;;;;2.83;1.60;;;;;;;;;;5106531;28;20178;-86
2023/07/15 10:01:34;;;;;;;2.65;1.52;;;;;;;;;;5097076;28;20598;-86
2023/07/15 10:04:46;;;;;;;1.85;1.60;;;;;;;;;;5081424;28;20183;-86
2023/07/15 10:07:51;;;;;;;2.28;1.77;;;;;;;;;;5117292;28;20178;-86
2023/07/15 10:10:55;;;;;;;2.20;1.55;;;;;;;;;;5081289;28;20225;-86
2023/07/15 10:14:00;;;;;;;2.05;1.60;;;;;;;;;;5081073;28;20193;-87
2023/07/15 10:17:12;;;;;;;6.65;1.52;;;;;;;;;;5081316;28;20540;-86
2023/07/15 10:20:20;;;;;;;4.10;1.50;;;;;;;;;;5080768;28;20206;-87
2023/07/15 10:23:29;;;;;;;2.25;1.80;;;;;;;;;;5081508;28;20178;-86
2023/07/15 10:26:33;;;;;;;2.20;1.70;;;;;;;;;;5092517;28;20182;-86
2023/07/15 10:29:39;;;;;;;3.22;1.67;;;;;;;;;;5080753;28;20202;-86
2023/07/15 10:32:59;;;;;;;2.72;1.65;;;;;;;;;;5081010;28;20620;-86
2023/07/15 10:36:07;;;;;;;2.63;1.55;;;;;;;;;;5103698;28;20190;-86
2023/07/15 10:39:16;;;;;;;1.90;1.40;;;;;;;;;;5092320;28;20178;-87
2023/07/15 10:42:21;;;;;;;1.40;1.30;;;;;;;;;;5081161;28;20169;-87
2023/07/15 10:45:43;;;;;;;2.63;1.50;;;;;;;;;;5080854;28;20660;-87
2023/07/15 10:48:49;;;;;;;3.78;1.40;;;;;;;;;;5092204;28;20210;-87
2023/07/15 10:52:40;;;;;;;2.60;1.60;;;;;;;;;;5091861;28;20209;-86
2023/07/15 10:56:38;;;;;;;3.20;1.80;;;;;;;;;;5093621;28;20198;-87
2023/07/15 10:59:56;;;;;;;1.52;1.42;;;;;;;;;;5091696;28;20205;-87
2023/07/15 11:03:04;;;;;;;2.05;1.60;;;;;;;;;;5091893;28;20178;-87
2023/07/15 11:06:09;;;;;;;1.90;1.60;;;;;;;;;;5091863;28;20170;-86
2023/07/15 11:09:14;;;;;;;2.05;1.70;;;;;;;;;;5080164;28;20174;-86
2023/07/15 11:12:18;;;;;;;2.20;1.70;;;;;;;;;;5079230;28;20182;-87
2023/07/15 11:15:28;;;;;;;2.38;1.50;;;;;;;;;;5079994;28;20177;-86
2023/07/15 11:18:33;;;;;;;3.35;1.65;;;;;;;;;;5079982;28;20178;-86
2023/07/15 11:21:37;;;;;;;2.33;1.60;;;;;;;;;;5091190;28;20213;-85
2023/07/15 11:24:41;;;;;;;3.47;1.60;;;;;;;;;;5079685;28;20174;-87
2023/07/15 11:27:49;;;;;;;3.83;1.67;;;;;;;;;;5079760;28;20632;-89
2023/07/15 11:30:56;;;;;;;3.38;1.30;;;;;;;;;;5079687;28;20708;-87
2023/07/15 11:34:02;;;;;;;1.50;1.40;;;;;;;;;;5080098;28;20174;-87
2023/07/15 11:37:07;;;;;;;1.70;1.45;;;;;;;;;;5079733;28;20182;-87
2023/07/15 11:40:16;;;;;;;3.17;1.60;;;;;;;;;;5092031;28;20225;-88
2023/07/15 11:43:25;;;;;;;1.42;1.33;;;;;;;;;;5091603;28;20174;-87
2023/07/15 11:46:30;;;;;;;1.58;1.48;;;;;;;;;;5079759;28;20178;-87
2023/07/15 11:49:42;;;;;;;1.50;1.35;;;;;;;;;;5102945;28;20655;-87
2023/07/15 11:52:46;;;;;;;1.60;1.50;;;;;;;;;;5092166;28;20178;-86
2023/07/15 11:55:50;;;;;;;5.57;2.63;;;;;;;;;;5079116;28;20177;-86
2023/07/15 11:58:55;;;;;;;1.60;1.33;;;;;;;;;;5079136;28;20182;-86
2023/07/15 12:02:02;;;;;;;4.97;1.67;;;;;;;;;;5102606;28;20186;-89
2023/07/15 12:05:07;;;;;;;1.88;1.50;;;;;;;;;;5078624;28;20193;-89
2023/07/15 12:08:12;;;;;;;2.40;1.38;;;;;;;;;;5079130;28;20182;-90
2023/07/15 12:11:19;;;;;;;1.85;1.40;;;;;;;;;;5079226;28;20209;-89
2023/07/15 12:14:24;;;;;;;1.63;1.38;;;;;;;;;;5101939;28;20174;-88
2023/07/15 12:17:28;;;;;;;2.70;1.83;;;;;;;;;;5078971;28;20174;-88
2023/07/15 12:20:32;;;;;;;2.63;1.42;;;;;;;;;;5078852;28;20245;-87
2023/07/15 12:23:36;;;;;;;3.83;1.50;;;;;;;;;;5078843;28;20517;-88
2023/07/15 12:26:40;;;;;;;2.58;1.25;;;;;;;;;;5079251;28;20178;-87
2023/07/15 12:29:44;;;;;;;1.55;1.25;;;;;;;;;;5090236;28;20174;-89
2023/07/15 12:32:49;;;;;;;1.60;1.50;;;;;;;;;;5091989;28;20178;-88
2023/07/15 12:35:55;;;;;;;5.97;1.40;;;;;;;;;;5090891;28;20185;-88
2023/07/15 12:38:59;;;;;;;2.83;1.30;;;;;;;;;;5068355;28;20190;-88
2023/07/15 12:42:04;;;;;;;4.13;1.42;;;;;;;;;;5079344;28;20181;-88
2023/07/15 12:45:11;;;;;;;1.38;1.27;;;;;;;;;;5090858;28;20193;-88
2023/07/15 12:48:15;;;;;;;1.50;1.40;;;;;;;;;;5102155;28;20178;-88
2023/07/15 12:51:19;;;;;;;1.52;1.40;;;;;;;;;;5090260;28;20209;-89
2023/07/15 12:54:24;;;;;;;1.58;1.48;;;;;;;;;;5090778;28;20170;-88
2023/07/15 12:57:28;;;;;;;1.60;1.50;;;;;;;;;;5101420;28;20170;-89
2023/07/15 13:00:33;;;;;;;1.67;1.55;;;;;;;;;;5078823;28;20222;-87
2023/07/15 13:03:37;;;;;;;4.45;1.50;;;;;;;;;;5101678;28;20170;-87
2023/07/15 13:06:41;;;;;;;2.78;1.40;;;;;;;;;;5078868;28;20182;-88
2023/07/15 13:09:46;;;;;;;1.42;1.33;;;;;;;;;;5078294;28;20193;-87
2023/07/15 13:12:50;;;;;;;2.35;1.40;;;;;;;;;;5078677;28;20181;-87
2023/07/15 13:15:54;;;;;;;1.60;1.38;;;;;;;;;;5090094;28;20174;-87
2023/07/15 13:18:59;;;;;;;1.67;1.58;;;;;;;;;;5078148;28;20182;-87
2023/07/15 13:22:04;;;;;;;1.60;1.50;;;;;;;;;;5078155;28;20687;-88
2023/07/15 13:25:08;;;;;;;1.40;1.30;;;;;;;;;;5078373;28;20174;-87
2023/07/15 13:28:13;;;;;;;2.05;1.63;;;;;;;;;;5090157;28;20178;-87
2023/07/15 13:31:17;;;;;;;1.60;1.50;;;;;;;;;;5089377;28;20209;-87
2023/07/15 13:34:21;;;;;;;1.55;1.45;;;;;;;;;;5078263;28;20174;-87
2023/07/15 13:37:25;;;;;;;1.70;1.40;;;;;;;;;;5116349;28;20169;-87
2023/07/15 13:40:29;;;;;;;1.75;1.63;;;;;;;;;;5093301;28;20221;-87
2023/07/15 13:43:34;;;;;;;3.00;1.80;;;;;;;;;;5093755;28;20178;-87
2023/07/15 13:46:38;;;;;;;1.70;1.45;;;;;;;;;;5116996;28;20174;-87
2023/07/15 13:49:42;;;;;;;4.15;1.40;;;;;;;;;;5105232;28;20193;-87
2023/07/15 13:52:47;;;;;;;4.15;1.88;;;;;;;;;;5093316;28;20174;-87
2023/07/15 13:55:52;;;;;;;1.60;1.50;;;;;;;;;;5081851;28;20540;-87
2023/07/15 13:58:56;;;;;;;2.85;1.50;;;;;;;;;;5093210;28;20170;-88
2023/07/15 14:02:01;;;;;;;1.88;1.50;;;;;;;;;;5081899;28;20206;-89
2023/07/15 14:05:06;;;;;;;4.63;2.08;;;;;;;;;;5093085;28;20170;-88
2023/07/15 14:08:10;;;;;;;2.35;1.70;;;;;;;;;;5081671;28;20169;-88
2023/07/15 14:11:14;;;;;;;2.50;1.50;;;;;;;;;;5092788;28;20213;-88
2023/07/15 14:14:19;;;;;;;5.00;1.80;;;;;;;;;;5081378;28;20174;-88
2023/07/15 14:17:23;;;;;;;4.95;1.85;;;;;;;;;;5104477;28;20177;-88
2023/07/15 14:20:27;;;;;;;4.63;1.80;;;;;;;;;;5092298;28;20229;-88
2023/07/15 14:23:32;;;;;;;2.10;1.50;;;;;;;;;;5080832;28;20194;-88
2023/07/15 14:26:36;;;;;;;3.40;1.75;;;;;;;;;;5081005;28;20655;-88
2023/07/15 14:29:41;;;;;;;1.90;1.77;;;;;;;;;;5081031;28;20518;-87
2023/07/15 14:32:45;;;;;;;1.83;1.73;;;;;;;;;;5092407;28;20624;-88
2023/07/15 14:35:49;;;;;;;1.60;1.50;;;;;;;;;;5092750;28;20173;-88
2023/07/15 14:38:53;;;;;;;2.88;1.85;;;;;;;;;;5092628;28;20174;-88
2023/07/15 14:41:57;;;;;;;9.35;2.08;;;;;;;;;;5091998;28;20205;-88
2023/07/15 14:45:02;;;;;;;3.95;1.90;;;;;;;;;;5104244;28;20193;-88
2023/07/15 14:48:06;;;;;;;3.47;1.50;;;;;;;;;;5091971;28;20197;-87
2023/07/15 14:51:11;;;;;;;2.95;1.77;;;;;;;;;;5080673;28;20214;-88
2023/07/15 14:54:15;;;;;;;2.03;1.55;;;;;;;;;;5103661;28;20174;-88
2023/07/15 14:57:19;;;;;;;3.67;1.60;;;;;;;;;;5103767;28;20178;-88
2023/07/15 15:10:46;;;;;;;2.28;1.63;;;;;;;;;;5115788;28;20202;-88
2023/07/15 15:14:58;;;;;;;3.22;1.70;;;;;;;;;;5080138;28;20174;-88
2023/07/15 15:18:52;;;;;;;2.38;1.42;;;;;;;;;;5103831;28;20481;-88
2023/07/15 15:21:55;;;;;;;1.75;1.52;;;;;;;;;;5079692;28;20213;-88
2023/07/15 15:24:59;;;;;;;3.70;1.75;;;;;;;;;;5079783;28;20198;-88
2023/07/15 15:28:03;;;;;;;3.70;1.90;;;;;;;;;;5090840;28;20189;-88
2023/07/15 15:31:08;;;;;;;2.70;1.65;;;;;;;;;;5079514;28;20243;-88
2023/07/15 15:34:12;;;;;;;2.58;1.40;;;;;;;;;;5102847;28;20173;-88
2023/07/15 15:37:16;;;;;;;1.60;1.50;;;;;;;;;;5079853;28;20177;-88
2023/07/15 15:40:20;;;;;;;3.28;1.70;;;;;;;;;;5079068;28;20676;-88
2023/07/15 15:43:24;;;;;;;2.10;1.60;;;;;;;;;;5079596;28;20174;-88
2023/07/15 15:46:28;;;;;;;2.92;1.63;;;;;;;;;;5079388;28;20543;-88
2023/07/15 15:49:32;;;;;;;3.25;1.55;;;;;;;;;;5090473;28;20206;-88
2023/07/15 15:52:36;;;;;;;2.30;1.75;;;;;;;;;;5090819;28;20171;-88
2023/07/15 15:55:41;;;;;;;2.08;1.60;;;;;;;;;;5090824;28;20621;-88
2023/07/15 15:58:45;;;;;;;2.08;1.67;;;;;;;;;;5090246;28;20194;-88
2023/07/15 16:01:49;;;;;;;2.42;1.73;;;;;;;;;;5078977;28;20222;-87
2023/07/15 16:04:54;;;;;;;3.53;1.85;;;;;;;;;;5090450;28;20194;-88
2023/07/15 16:08:02;;;;;;;2.45;1.60;;;;;;;;;;5090713;28;20202;-88
2023/07/15 16:11:10;;;;;;;3.28;1.50;;;;;;;;;;5101550;28;20206;-87
2023/07/15 16:14:16;;;;;;;2.65;1.63;;;;;;;;;;5078980;28;20199;-88
2023/07/15 16:17:20;;;;;;;1.80;1.70;;;;;;;;;;5078666;28;20182;-88
2023/07/15 16:20:25;;;;;;;2.53;1.70;;;;;;;;;;5078892;28;20218;-88
2023/07/15 16:23:30;;;;;;;2.80;1.70;;;;;;;;;;5090004;28;20178;-88
2023/07/15 16:26:35;;;;;;;2.90;1.58;;;;;;;;;;5090446;28;20174;-88
2023/07/15 16:29:39;;;;;;;2.22;1.58;;;;;;;;;;5101760;28;20182;-88
2023/07/15 16:32:43;;;;;;;1.85;1.60;;;;;;;;;;5090416;28;20509;-88
2023/07/15 16:35:48;;;;;;;1.90;1.55;;;;;;;;;;5078544;28;20206;-88
2023/07/15 16:38:54;;;;;;;1.88;1.70;;;;;;;;;;5090301;28;20194;-88
2023/07/15 16:41:59;;;;;;;1.80;1.70;;;;;;;;;;5078644;28;20680;-88
2023/07/15 16:45:05;;;;;;;2.08;1.90;;;;;;;;;;5078748;28;20174;-88
2023/07/15 16:48:11;;;;;;;2.40;1.80;;;;;;;;;;5078416;28;20178;-87
2023/07/15 16:51:16;;;;;;;3.03;2.00;;;;;;;;;;5090177;28;20222;-88
2023/07/15 16:54:21;;;;;;;2.15;1.80;;;;;;;;;;5090071;28;20174;-87
2023/07/15 16:57:26;;;;;;;3.22;1.67;;;;;;;;;;5101582;28;20629;-87
2023/07/15 17:00:30;;;;;;;1.83;1.65;;;;;;;;;;5101364;28;20217;-87
2023/07/15 17:03:34;;;;;;;2.30;1.50;;;;;;;;;;5089584;28;20186;-87
2023/07/15 17:06:39;;;;;;;3.22;1.55;;;;;;;;;;5089852;28;20186;-87
2023/07/15 17:09:45;;;;;;;2.17;1.95;;;;;;;;;;5101604;28;20518;-87
2023/07/15 17:12:49;;;;;;;1.88;1.70;;;;;;;;;;5094052;28;20525;-87
2023/07/15 17:15:53;;;;;;;1.70;1.60;;;;;;;;;;5082188;28;20197;-87
2023/07/15 17:18:58;;;;;;;1.73;1.50;;;;;;;;;;5105340;28;20198;-87
2023/07/15 17:22:02;;;;;;;1.80;1.70;;;;;;;;;;5082235;28;20206;-87
2023/07/15 17:25:06;;;;;;;2.53;1.42;;;;;;;;;;5105614;28;20175;-87
2023/07/15 17:28:10;;;;;;;2.55;1.60;;;;;;;;;;5093670;28;20179;-87
2023/07/15 17:31:14;;;;;;;1.95;1.75;;;;;;;;;;5093434;28;20692;-87
2023/07/15 17:34:19;;;;;;;2.42;1.77;;;;;;;;;;5093261;28;20178;-88
2023/07/15 17:37:26;;;;;;;16.33;5.38;;;;;;;;;;5093952;28;20182;-87
2023/07/15 17:40:31;;;;;;;7.90;3.30;;;;;;;;;;5093380;28;20214;-87
2023/07/15 17:43:35;;;;;;;3.40;2.30;;;;;;;;;;5093774;28;20166;-87
2023/07/15 17:46:40;;;;;;;4.00;1.90;;;;;;;;;;5082931;28;20175;-87
2023/07/15 17:49:44;;;;;;;1.75;1.50;;;;;;;;;;5094255;28;20202;-87
2023/07/15 17:52:48;;;;;;;2.30;1.75;;;;;;;;;;5082204;28;20194;-87
2023/07/15 17:55:53;;;;;;;2.92;1.63;;;;;;;;;;5093053;28;20190;-87
2023/07/15 17:58:57;;;;;;;4.28;1.70;;;;;;;;;;5081517;28;20194;-87
2023/07/15 18:02:01;;;;;;;2.40;1.98;;;;;;;;;;5068281;22;20225;-80
2023/07/15 18:05:05;;;;;;;2.00;1.65;;;;;;;;;;5024031;28;20197;-80
2023/07/15 18:08:10;;;;;;;5.65;1.80;;;;;;;;;;5024069;28;20197;-80
2023/07/15 18:11:14;;;;;;;2.50;1.42;;;;;;;;;;5024113;28;20216;-80
2023/07/15 18:14:18;;;;;;;2.45;1.50;;;;;;;;;;5024085;28;20195;-80
2023/07/15 18:17:23;;;;;;;2.95;1.50;;;;;;;;;;5035556;28;20517;-80
2023/07/15 18:20:27;;;;;;;2.05;1.60;;;;;;;;;;5036154;28;20177;-80
2023/07/15 18:23:38;;;;;;;3.25;1.67;;;;;;;;;;5035414;28;20197;-80
2023/07/15 18:26:42;;;;;;;4.60;1.80;;;;;;;;;;5036099;28;20521;-80
2023/07/15 18:29:46;;;;;;;5.30;1.80;;;;;;;;;;5024236;28;20200;-80
2023/07/15 18:32:50;;;;;;;2.00;1.80;;;;;;;;;;5035695;28;20220;-80
2023/07/15 18:35:54;;;;;;;2.85;2.08;;;;;;;;;;5035609;28;20191;-80
2023/07/15 18:38:58;;;;;;;1.75;1.65;;;;;;;;;;5023736;28;20639;-80
2023/07/15 18:42:02;;;;;;;4.22;1.80;;;;;;;;;;5035452;28;20215;-80
2023/07/15 18:45:07;;;;;;;2.13;1.90;;;;;;;;;;5035336;28;20180;-80
2023/07/15 18:48:11;;;;;;;2.78;1.92;;;;;;;;;;5035687;28;20627;-80
2023/07/15 18:51:15;;;;;;;1.92;1.80;;;;;;;;;;5035299;28;20218;-80
2023/07/15 18:54:19;;;;;;;1.80;1.70;;;;;;;;;;5034821;28;20173;-80
2023/07/15 18:57:23;;;;;;;2.92;1.83;;;;;;;;;;5034353;28;20181;-80
2023/07/15 19:00:27;;;;;;;2.00;1.80;;;;;;;;;;5034278;28;20179;-80
2023/07/15 19:03:32;;;;;;;1.70;1.60;;;;;;;;;;5034128;28;20168;-80
2023/07/15 19:06:36;;;;;;;2.30;2.10;;;;;;;;;;5022664;28;20196;-80